Senin
| Ora | Descriere | Temp | Se simte | Precipitatii | Umiditate | Vant |
|---|---|---|---|---|---|---|
| 00:00 | 13.6° | 13.3° | 0% | 61% | S 7.2 KM/H | |
| 01:00 | 11.9° | 11.5° | 0% | 67% | S 6.8 KM/H | |
| 02:00 | Senin | 12° | 11.7° | 0% | 66% | S 6.5 KM/H |
| 03:00 | Senin | 10° | 11° | 0% | 71% | SSW 4.7 KM/H |
| 04:00 | Senin | 10.9° | 10.9° | 0% | 70% | WSW 2.9 KM/H |
| 05:00 | Senin | 11.3° | 11.3° | 0% | 68% | SSW 2.2 KM/H |
| 06:00 | Senin | 10.1° | 10.6° | 0% | 73% | SSW 3.2 KM/H |
| 07:00 | Senin | 10.9° | 10.9° | 0% | 74% | SSW 4.7 KM/H |
| 08:00 | Senin | 14.9° | 15.5° | 0% | 67% | S 4.3 KM/H |
| 09:00 | Senin | 15.8° | 15.8° | 0% | 66% | SSE 6.8 KM/H |
| 10:00 | Senin | 17.8° | 17.9° | 0% | 60% | S 7.6 KM/H |
| 11:00 | Senin | 19.9° | 19.9° | 0% | 54% | SSE 7.2 KM/H |
| 12:00 | Senin | 21.4° | 21.4° | 0% | 48% | SSE 6.8 KM/H |
| 13:00 | Senin | 22.6° | 24.3° | 0% | 42% | SSE 5.8 KM/H |
| 14:00 | Senin | 23.5° | 24.4° | 0% | 38% | SE 6.1 KM/H |
| 15:00 | Senin | 23.6° | 24.3° | 0% | 36% | SE 7.9 KM/H |
| 16:00 | Senin | 23.6° | 24.4° | 0% | 35% | SE 8.6 KM/H |
| 17:00 | Senin | 23.4° | 24.3° | 0% | 36% | SE 8.6 KM/H |
| 18:00 | Senin | 23° | 24.4° | 0% | 41% | SSE 9.7 KM/H |
| 19:00 | Senin | 20.3° | 20.3° | 0% | 55% | SSE 12.2 KM/H |
| 20:00 | Senin | 15.5° | 15.5° | 0% | 65% | S 13 KM/H |
| 21:00 | Senin | 13.8° | 12.9° | 0% | 65% | S 11.9 KM/H |
| 22:00 | Senin | 13° | 12.3° | 0% | 68% | S 9.4 KM/H |
| 23:00 | Senin | 12.3° | 11.6° | 0% | 72% | S 8.6 KM/H |